createdAt,value
2023-03-29T00:00:00.901Z,5.19
2023-03-29T00:04:02.408Z,5.08
2023-03-29T00:08:00.707Z,5.10
2023-03-29T00:12:00.662Z,5.06
2023-03-29T00:16:00.658Z,5.06
2023-03-29T00:20:00.620Z,4.96
2023-03-29T00:24:00.548Z,4.90
2023-03-29T00:28:00.566Z,4.86
2023-03-29T00:32:00.489Z,4.90
2023-03-29T00:36:00.448Z,4.90
2023-03-29T00:40:00.393Z,4.80
2023-03-29T00:44:00.402Z,4.71
2023-03-29T00:48:00.520Z,4.78
2023-03-29T00:52:00.366Z,4.69
2023-03-29T00:56:00.284Z,4.68
2023-03-29T01:00:00.288Z,4.67
2023-03-29T01:04:00.293Z,4.64
2023-03-29T01:08:00.226Z,4.57
2023-03-29T01:12:00.152Z,4.57
2023-03-29T01:16:00.204Z,4.57
2023-03-29T01:20:00.187Z,4.52
2023-03-29T01:24:00.129Z,4.52
2023-03-29T01:28:00.098Z,4.43
2023-03-29T01:32:00.091Z,4.42
2023-03-29T01:36:00.004Z,4.37
2023-03-29T01:39:59.998Z,4.34
2023-03-29T01:43:59.966Z,4.34
2023-03-29T01:47:59.931Z,4.30
2023-03-29T01:51:59.852Z,4.23
2023-03-29T01:55:59.844Z,4.26
2023-03-29T01:59:59.969Z,4.21
2023-03-29T02:03:59.710Z,4.14
2023-03-29T02:07:59.880Z,4.11
2023-03-29T02:11:59.772Z,4.12
2023-03-29T02:15:59.794Z,4.11
2023-03-29T02:19:59.687Z,4.06
2023-03-29T02:23:59.704Z,3.98
2023-03-29T02:27:59.642Z,3.91
2023-03-29T02:31:59.631Z,3.85
2023-03-29T02:35:59.627Z,3.80
2023-03-29T02:39:59.538Z,3.73
2023-03-29T02:43:59.532Z,3.75
2023-03-29T02:47:59.493Z,3.75
2023-03-29T02:51:59.623Z,3.64
2023-03-29T02:55:59.749Z,3.62
2023-03-29T02:59:59.879Z,3.57
2023-03-29T03:04:00.219Z,3.61
2023-03-29T03:08:00.283Z,3.60
2023-03-29T03:12:00.545Z,3.60
2023-03-29T03:16:00.546Z,3.50
2023-03-29T03:20:00.422Z,3.48
2023-03-29T03:24:00.382Z,3.55
2023-03-29T03:28:00.306Z,3.51
2023-03-29T03:32:00.349Z,3.48
2023-03-29T03:36:00.297Z,3.44
2023-03-29T03:40:00.226Z,3.41
2023-03-29T03:44:00.174Z,3.41
2023-03-29T03:48:00.240Z,3.36
2023-03-29T03:52:00.144Z,3.36
2023-03-29T03:56:00.163Z,3.32
2023-03-29T04:00:00.151Z,3.34
2023-03-29T04:04:00.434Z,3.14
2023-03-29T04:08:00.475Z,2.47
2023-03-29T04:12:00.545Z,2.10
2023-03-29T04:16:01.861Z,1.75
2023-03-29T04:20:00.790Z,1.69
2023-03-29T04:24:00.784Z,1.68
2023-03-29T04:28:00.860Z,1.67
2023-03-29T04:32:00.774Z,1.71
2023-03-29T04:36:00.859Z,1.87
2023-03-29T04:40:00.832Z,1.98
2023-03-29T04:44:00.827Z,2.03
2023-03-29T04:48:00.905Z,2.13
2023-03-29T04:52:00.899Z,2.13
2023-03-29T04:56:00.788Z,2.17
2023-03-29T05:00:00.801Z,2.22
2023-03-29T05:04:00.829Z,2.21
2023-03-29T05:08:00.829Z,2.25
2023-03-29T05:12:00.773Z,2.29
2023-03-29T05:16:00.827Z,2.25
2023-03-29T05:20:00.769Z,2.28
2023-03-29T05:28:00.790Z,2.25
2023-03-29T05:32:00.931Z,2.27
2023-03-29T05:36:00.888Z,2.21
2023-03-29T05:40:05.895Z,2.23
2023-03-29T05:44:01.865Z,2.34
2023-03-29T05:48:00.925Z,2.53
2023-03-29T05:52:00.873Z,2.68
2023-03-29T05:56:00.692Z,2.70
2023-03-29T06:00:00.688Z,2.82
2023-03-29T06:04:00.966Z,2.91
2023-03-29T06:08:00.670Z,3.10
2023-03-29T06:12:00.571Z,3.18
2023-03-29T06:16:00.552Z,3.24
2023-03-29T06:20:00.465Z,3.22
2023-03-29T06:24:00.519Z,3.56
2023-03-29T06:28:00.415Z,3.44
2023-03-29T06:32:00.346Z,3.40
2023-03-29T06:36:00.357Z,3.27
2023-03-29T06:40:00.306Z,3.52
2023-03-29T06:44:00.334Z,3.66
2023-03-29T06:48:00.352Z,3.52
2023-03-29T06:52:00.167Z,3.35
2023-03-29T06:56:00.187Z,3.28
2023-03-29T07:00:00.189Z,3.39
2023-03-29T07:04:00.158Z,3.27
2023-03-29T07:08:00.395Z,3.32
2023-03-29T07:12:00.664Z,3.22
2023-03-29T07:16:00.321Z,3.14
2023-03-29T07:20:00.201Z,3.26
2023-03-29T07:24:00.185Z,2.99
2023-03-29T07:28:00.211Z,2.98
2023-03-29T07:32:01.168Z,2.71
2023-03-29T07:36:00.288Z,2.51
2023-03-29T07:40:00.185Z,2.65
2023-03-29T07:44:01.401Z,2.58
2023-03-29T07:48:00.280Z,2.66
2023-03-29T07:51:59.881Z,2.64
2023-03-29T07:55:59.843Z,2.44
2023-03-29T07:59:59.828Z,2.60
2023-03-29T08:04:00.302Z,2.51
2023-03-29T08:07:59.769Z,2.52
2023-03-29T08:11:59.749Z,2.73
2023-03-29T08:16:00.239Z,2.61
2023-03-29T08:19:59.639Z,2.55
2023-03-29T08:23:59.655Z,2.30
2023-03-29T08:27:59.596Z,2.15
2023-03-29T08:31:59.528Z,2.07
2023-03-29T08:35:59.583Z,1.92
2023-03-29T08:39:59.748Z,1.59
2023-03-29T08:43:59.450Z,1.79
2023-03-29T08:47:59.348Z,1.41
2023-03-29T08:51:59.485Z,1.07
2023-03-29T08:56:11.057Z,1.43
2023-03-29T09:00:18.091Z,0.50
2023-03-29T09:04:18.066Z,0.55
2023-03-29T09:08:17.793Z,0.62
2023-03-29T09:12:18.039Z,0.66
2023-03-29T09:16:18.178Z,0.51
2023-03-29T09:20:17.666Z,0.53
2023-03-29T09:24:17.582Z,0.62
2023-03-29T09:28:17.582Z,0.56
2023-03-29T09:32:17.573Z,0.59
2023-03-29T09:36:17.623Z,0.70
2023-03-29T09:44:36.200Z,0.50
2023-03-29T09:48:35.997Z,0.53
2023-03-29T09:52:35.879Z,0.50
2023-03-29T09:56:42.078Z,0.50
2023-03-29T10:00:36.259Z,0.50
2023-03-29T10:04:35.792Z,0.51
2023-03-29T10:08:35.821Z,0.53
2023-03-29T10:12:35.738Z,0.57
2023-03-29T10:16:35.761Z,0.56
2023-03-29T10:20:37.037Z,0.56
2023-03-29T10:24:37.348Z,0.53
2023-03-29T10:28:35.752Z,0.51
2023-03-29T10:32:35.681Z,0.51
2023-03-29T10:36:36.128Z,0.59
2023-03-29T10:40:35.632Z,0.75
2023-03-29T10:44:35.765Z,0.87
2023-03-29T10:48:35.727Z,0.86
2023-03-29T10:52:35.829Z,0.84
2023-03-29T10:56:35.972Z,0.94
2023-03-29T11:00:36.203Z,0.91
2023-03-29T11:04:36.438Z,0.84
2023-03-29T11:08:36.719Z,0.93
2023-03-29T11:12:36.562Z,1.05
2023-03-29T11:16:36.562Z,0.99
2023-03-29T11:20:36.546Z,0.77
2023-03-29T11:24:36.775Z,0.87
2023-03-29T11:28:36.462Z,0.69
2023-03-29T11:32:36.485Z,0.52
2023-03-29T11:36:36.416Z,0.50
2023-03-29T11:40:36.391Z,0.51
2023-03-29T11:44:36.305Z,0.50
2023-03-29T11:48:36.299Z,0.53
2023-03-29T11:52:36.334Z,0.50
2023-03-29T11:56:36.565Z,0.54
2023-03-29T12:00:36.487Z,0.64
2023-03-29T12:04:36.431Z,0.76
2023-03-29T12:08:36.436Z,0.90
2023-03-29T12:12:36.407Z,0.93
2023-03-29T12:16:36.345Z,1.08
2023-03-29T12:20:36.294Z,1.18
2023-03-29T12:24:36.271Z,1.37
2023-03-29T12:28:36.348Z,1.47
2023-03-29T12:32:36.217Z,1.59
2023-03-29T12:36:36.144Z,1.72
2023-03-29T12:40:36.107Z,1.89
2023-03-29T12:44:36.060Z,1.89
2023-03-29T12:48:36.015Z,1.92
2023-03-29T12:52:36.000Z,2.01
2023-03-29T12:56:35.984Z,2.03
2023-03-29T13:28:35.850Z,2.40
2023-03-29T13:32:35.849Z,2.40
2023-03-29T13:36:35.821Z,2.28
2023-03-29T13:40:35.857Z,2.31
2023-03-29T13:44:35.905Z,2.43
2023-03-29T13:48:35.945Z,2.41
2023-03-29T13:52:35.897Z,2.26
2023-03-29T13:56:35.922Z,2.38
2023-03-29T14:00:35.993Z,2.28
2023-03-29T14:04:36.007Z,2.28
2023-03-29T14:08:36.130Z,2.19
2023-03-29T14:12:36.679Z,2.12
2023-03-29T14:16:36.315Z,2.08
2023-03-29T14:20:36.359Z,2.10
2023-03-29T14:24:36.494Z,2.04
2023-03-29T14:28:36.657Z,2.02
2023-03-29T14:32:36.809Z,2.07
2023-03-29T14:36:36.959Z,2.08
2023-03-29T14:40:37.081Z,1.98
2023-03-29T14:44:37.204Z,1.94
2023-03-29T14:48:37.392Z,2.11
2023-03-29T14:52:37.548Z,2.01
2023-03-29T14:56:37.743Z,1.89
2023-03-29T15:00:37.923Z,1.99
2023-03-29T15:03:08.937Z,0.50
2023-03-29T15:04:08.817Z,0.50
2023-03-29T15:05:08.854Z,0.50
2023-03-29T15:06:08.875Z,0.50
2023-03-29T15:07:08.853Z,0.50
2023-03-29T15:08:08.843Z,0.51
2023-03-29T15:09:08.840Z,0.50
2023-03-29T15:10:08.951Z,0.50
2023-03-29T15:11:08.935Z,0.50
2023-03-29T15:12:08.988Z,0.51
2023-03-29T15:13:09.031Z,0.50
2023-03-29T15:14:09.131Z,0.50
2023-03-29T15:15:09.135Z,0.50
2023-03-29T15:16:09.448Z,0.50
2023-03-29T15:17:09.241Z,0.50
2023-03-29T15:18:09.343Z,0.51
2023-03-29T15:19:09.374Z,0.50
2023-03-29T15:20:09.441Z,0.50
2023-03-29T15:21:09.499Z,0.50
2023-03-29T15:22:09.524Z,0.50
2023-03-29T15:23:09.554Z,0.50
2023-03-29T15:24:09.587Z,0.51
2023-03-29T15:25:09.634Z,0.50
2023-03-29T15:26:09.643Z,0.50
2023-03-29T15:27:09.730Z,0.50
2023-03-29T15:28:09.763Z,0.50
2023-03-29T15:29:09.791Z,0.50
2023-03-29T15:30:10.234Z,0.50
2023-03-29T15:31:09.881Z,0.50
2023-03-29T15:32:09.897Z,0.51
2023-03-29T15:33:09.959Z,0.51
2023-03-29T15:34:09.945Z,0.51
2023-03-29T15:35:10.008Z,0.50
2023-03-29T15:36:10.104Z,0.53
2023-03-29T15:37:10.067Z,0.50
2023-03-29T15:38:10.069Z,0.52
2023-03-29T15:39:10.076Z,0.50
2023-03-29T15:40:10.123Z,0.51
2023-03-29T15:41:10.075Z,0.53
2023-03-29T15:42:10.111Z,0.52
2023-03-29T15:43:10.142Z,0.53
2023-03-29T15:44:10.156Z,0.53
2023-03-29T15:45:10.213Z,0.55
2023-03-29T15:46:10.244Z,0.56
2023-03-29T15:47:10.450Z,0.58
2023-03-29T15:48:10.232Z,0.59
2023-03-29T15:49:10.261Z,0.60
2023-03-29T15:50:10.272Z,0.61
2023-03-29T15:51:10.328Z,0.61
2023-03-29T15:52:10.311Z,0.63
2023-03-29T15:53:15.039Z,0.64
2023-03-29T15:54:11.326Z,0.64
2023-03-29T15:55:10.350Z,0.62
2023-03-29T15:56:10.340Z,0.64
2023-03-29T15:57:10.404Z,0.67
2023-03-29T15:58:10.454Z,0.71
2023-03-29T15:59:10.381Z,0.69
2023-03-29T16:00:10.380Z,0.71
2023-03-29T16:01:10.410Z,0.71
2023-03-29T16:02:10.425Z,0.72
2023-03-29T16:03:10.417Z,0.76
2023-03-29T16:04:10.390Z,0.79
2023-03-29T16:05:10.398Z,0.77
2023-03-29T16:06:10.352Z,0.75
2023-03-29T16:07:10.415Z,0.81
2023-03-29T16:08:10.420Z,0.79
2023-03-29T16:09:10.370Z,0.82
2023-03-29T16:10:10.383Z,0.84
2023-03-29T16:11:10.359Z,0.85
2023-03-29T16:12:10.360Z,0.85
2023-03-29T16:13:10.340Z,0.85
2023-03-29T16:14:10.386Z,0.87
2023-03-29T16:15:10.422Z,0.88
2023-03-29T16:16:10.414Z,0.89
2023-03-29T16:17:10.437Z,0.90
2023-03-29T16:18:10.374Z,0.92
2023-03-29T16:19:10.356Z,0.91
2023-03-29T16:20:10.395Z,0.92
2023-03-29T16:21:12.216Z,0.91
2023-03-29T16:22:10.414Z,0.96
2023-03-29T16:23:10.362Z,0.93
2023-03-29T16:24:10.417Z,0.93
2023-03-29T16:25:10.384Z,0.94
2023-03-29T16:26:10.387Z,0.94
2023-03-29T16:27:10.457Z,0.94
2023-03-29T16:28:10.399Z,0.95
2023-03-29T16:29:10.399Z,0.94
2023-03-29T16:30:10.408Z,0.98
2023-03-29T16:31:10.419Z,0.97
2023-03-29T16:32:10.472Z,0.98
2023-03-29T16:33:10.476Z,1.00
2023-03-29T16:34:10.443Z,1.04
2023-03-29T16:35:10.388Z,1.03
2023-03-29T16:36:10.419Z,1.07
2023-03-29T16:37:10.436Z,1.07
2023-03-29T16:38:10.406Z,1.07
2023-03-29T16:39:10.424Z,1.08
2023-03-29T16:40:10.438Z,1.10
2023-03-29T16:41:10.496Z,1.09
2023-03-29T16:42:10.382Z,1.11
2023-03-29T16:43:10.443Z,1.15
2023-03-29T16:44:10.408Z,1.14
2023-03-29T16:45:10.459Z,1.12
2023-03-29T16:46:10.484Z,1.12
2023-03-29T16:47:10.429Z,1.16
2023-03-29T16:48:10.433Z,1.15
2023-03-29T16:49:10.435Z,1.16
2023-03-29T16:50:10.459Z,1.18
2023-03-29T16:51:10.506Z,1.17
2023-03-29T16:52:10.395Z,1.19
2023-03-29T16:53:10.431Z,1.19
2023-03-29T16:54:10.417Z,1.18
2023-03-29T16:55:10.366Z,1.19
2023-03-29T16:56:10.441Z,1.21
2023-03-29T16:57:10.525Z,1.21
2023-03-29T16:58:10.426Z,1.23
2023-03-29T16:59:10.408Z,1.24
2023-03-29T17:00:10.504Z,1.20
2023-03-29T17:01:10.443Z,1.22
2023-03-29T17:02:10.419Z,1.26
2023-03-29T17:03:10.522Z,1.24
2023-03-29T17:04:10.520Z,1.25
2023-03-29T17:05:10.439Z,1.24
2023-03-29T17:06:10.474Z,1.26
2023-03-29T17:07:10.453Z,1.27
2023-03-29T17:08:10.470Z,1.25
2023-03-29T17:09:10.478Z,1.26
2023-03-29T17:10:10.473Z,1.25
2023-03-29T17:11:10.551Z,1.29
2023-03-29T17:12:10.562Z,1.24
2023-03-29T17:13:10.548Z,1.26
2023-03-29T17:14:10.515Z,1.27
2023-03-29T17:15:10.514Z,1.27
2023-03-29T17:16:10.657Z,1.28
2023-03-29T17:17:10.584Z,1.25
2023-03-29T17:18:10.620Z,1.28
2023-03-29T17:19:10.556Z,1.26
2023-03-29T17:20:10.646Z,1.30
2023-03-29T17:21:10.625Z,1.29
2023-03-29T17:22:10.622Z,1.27
2023-03-29T17:23:10.649Z,1.30
2023-03-29T17:24:10.672Z,1.32
2023-03-29T17:25:10.734Z,1.32
2023-03-29T17:26:10.723Z,1.29
2023-03-29T17:27:10.693Z,1.33
2023-03-29T17:28:10.776Z,1.31
2023-03-29T17:29:10.808Z,1.32
2023-03-29T17:30:10.751Z,1.31
2023-03-29T17:31:10.839Z,1.34
2023-03-29T17:32:10.790Z,1.32
2023-03-29T17:33:10.897Z,1.32
2023-03-29T17:34:10.850Z,1.28
2023-03-29T17:35:10.886Z,1.32
2023-03-29T17:36:10.956Z,1.35
2023-03-29T17:37:10.911Z,1.34
2023-03-29T17:38:10.971Z,1.35
2023-03-29T17:39:10.979Z,1.32
2023-03-29T17:40:11.041Z,1.37
2023-03-29T17:41:11.057Z,1.33
2023-03-29T17:42:11.139Z,1.33
2023-03-29T17:43:11.097Z,1.36
2023-03-29T17:44:11.164Z,1.40
2023-03-29T17:45:11.174Z,1.52
2023-03-29T17:46:11.276Z,1.55
2023-03-29T17:47:11.197Z,1.53
2023-03-29T17:48:11.320Z,1.62
2023-03-29T17:49:11.283Z,1.58
2023-03-29T17:50:11.312Z,1.59
2023-03-29T17:51:11.327Z,1.56
2023-03-29T17:52:11.337Z,1.57
2023-03-29T17:53:11.352Z,1.49
2023-03-29T17:54:11.393Z,1.52
2023-03-29T17:55:11.449Z,1.49
2023-03-29T17:56:11.483Z,1.53
2023-03-29T17:57:11.528Z,1.49
2023-03-29T17:58:11.556Z,1.50
2023-03-29T17:59:11.575Z,1.51
2023-03-29T18:00:11.667Z,1.50
2023-03-29T18:01:11.767Z,1.51
2023-03-29T18:02:11.705Z,1.47
2023-03-29T18:03:11.796Z,1.47
2023-03-29T18:04:11.770Z,1.48
2023-03-29T18:05:11.843Z,1.47
2023-03-29T18:06:11.849Z,1.44
2023-03-29T18:07:11.923Z,1.47
2023-03-29T18:08:11.986Z,1.46
2023-03-29T18:09:12.004Z,1.45
2023-03-29T18:10:12.095Z,1.45
2023-03-29T18:11:12.170Z,1.48
2023-03-29T18:12:12.223Z,1.42
2023-03-29T18:13:12.195Z,1.45
2023-03-29T18:14:12.242Z,1.45
2023-03-29T18:15:12.396Z,1.39
2023-03-29T18:16:12.428Z,1.42
2023-03-29T18:17:12.532Z,1.43
2023-03-29T18:18:12.511Z,1.47
2023-03-29T18:19:12.554Z,1.40
2023-03-29T18:20:12.642Z,1.46
2023-03-29T18:21:12.710Z,1.45
2023-03-29T18:22:12.762Z,1.43
2023-03-29T18:23:12.813Z,1.41
2023-03-29T18:24:12.951Z,1.43
2023-03-29T18:25:12.914Z,1.46
2023-03-29T18:26:12.992Z,1.47
2023-03-29T18:27:13.019Z,1.48
2023-03-29T18:28:13.130Z,1.50
2023-03-29T18:29:13.159Z,1.45
2023-03-29T18:30:13.206Z,1.45
2023-03-29T18:31:13.279Z,1.47
2023-03-29T18:32:13.450Z,1.46
2023-03-29T18:33:13.452Z,1.45
2023-03-29T18:34:13.437Z,1.45
2023-03-29T18:35:13.503Z,1.45
2023-03-29T18:36:13.918Z,1.41
2023-03-29T18:37:13.643Z,1.42
2023-03-29T18:38:13.708Z,1.46
2023-03-29T18:39:13.772Z,1.44
2023-03-29T18:40:13.853Z,1.41
2023-03-29T18:41:13.890Z,1.41
2023-03-29T18:42:13.944Z,1.44
2023-03-29T18:43:13.980Z,1.43
2023-03-29T18:44:14.073Z,1.43
2023-03-29T18:45:14.096Z,1.41
2023-03-29T18:46:14.199Z,1.43
2023-03-29T18:47:14.215Z,1.44
2023-03-29T18:48:14.311Z,1.40
2023-03-29T18:49:14.332Z,1.43
2023-03-29T18:50:14.402Z,1.42
2023-03-29T18:51:14.476Z,1.42
2023-03-29T18:52:14.508Z,1.43
2023-03-29T18:53:14.666Z,1.42
2023-03-29T18:54:14.633Z,1.44
2023-03-29T18:55:14.681Z,1.44
2023-03-29T18:56:14.780Z,1.43
2023-03-29T18:57:14.899Z,1.45
2023-03-29T18:58:14.873Z,1.41
2023-03-29T18:59:14.944Z,1.43
2023-03-29T19:00:14.968Z,1.45
2023-03-29T19:01:15.133Z,1.43
2023-03-29T19:02:15.233Z,1.41
2023-03-29T19:03:15.237Z,1.40
2023-03-29T19:04:15.249Z,1.42
2023-03-29T19:05:15.293Z,1.42
2023-03-29T19:06:15.358Z,1.40
2023-03-29T19:07:15.447Z,1.40
2023-03-29T19:08:15.520Z,1.38
2023-03-29T19:09:15.558Z,1.41
2023-03-29T19:10:15.628Z,1.41
2023-03-29T19:11:15.752Z,1.39
2023-03-29T19:12:15.767Z,1.39
2023-03-29T19:13:15.779Z,1.39
2023-03-29T19:14:15.817Z,1.37
2023-03-29T19:15:15.906Z,1.37
2023-03-29T19:16:16.010Z,1.38
2023-03-29T19:17:16.065Z,1.39
2023-03-29T19:18:16.136Z,1.39
2023-03-29T19:19:16.157Z,1.37
2023-03-29T19:20:16.207Z,1.38
2023-03-29T19:21:16.277Z,1.38
2023-03-29T19:22:16.336Z,1.36
2023-03-29T19:23:16.401Z,1.36
2023-03-29T19:24:16.462Z,1.34
2023-03-29T19:25:16.478Z,1.38
2023-03-29T19:26:16.557Z,1.34
2023-03-29T19:27:16.596Z,1.36
2023-03-29T19:28:16.658Z,1.33
2023-03-29T19:29:16.742Z,1.33
2023-03-29T19:30:16.749Z,1.36
2023-03-29T19:31:16.858Z,1.34
2023-03-29T19:32:16.869Z,1.34
2023-03-29T19:33:17.886Z,1.35
2023-03-29T19:34:17.042Z,1.34
2023-03-29T19:35:17.109Z,1.30
2023-03-29T19:36:17.215Z,1.32
2023-03-29T19:37:17.173Z,1.35
2023-03-29T19:38:17.265Z,1.33
2023-03-29T19:39:17.323Z,1.29
2023-03-29T19:40:17.332Z,1.30
2023-03-29T19:41:17.439Z,1.32
2023-03-29T19:42:17.430Z,1.34
2023-03-29T19:43:17.484Z,1.30
2023-03-29T19:44:17.930Z,1.31
2023-03-29T19:45:17.608Z,1.30
2023-03-29T19:46:17.680Z,1.33
2023-03-29T19:47:17.684Z,1.30
2023-03-29T19:49:17.736Z,1.33
2023-03-29T19:50:17.749Z,1.30
2023-03-29T19:51:17.752Z,1.29
2023-03-29T19:52:17.728Z,1.29
2023-03-29T19:53:17.717Z,1.26
2023-03-29T19:54:17.723Z,1.31
2023-03-29T19:55:17.705Z,1.32
2023-03-29T19:56:17.710Z,1.29
2023-03-29T19:57:17.711Z,1.29
2023-03-29T19:58:17.710Z,1.30
2023-03-29T19:59:17.692Z,1.30
2023-03-29T20:00:17.654Z,1.27
2023-03-29T20:01:17.658Z,1.29
2023-03-29T20:02:17.714Z,1.28
2023-03-29T20:03:17.649Z,1.28
2023-03-29T20:04:17.938Z,1.26
2023-03-29T20:05:17.633Z,1.28
2023-03-29T20:06:17.604Z,1.27
2023-03-29T20:07:17.622Z,1.27
2023-03-29T20:08:17.611Z,1.25
2023-03-29T20:09:17.596Z,1.27
2023-03-29T20:10:17.626Z,1.27
2023-03-29T20:11:17.574Z,1.27
2023-03-29T20:12:17.580Z,1.26
2023-03-29T20:13:31.276Z,1.24
2023-03-29T20:14:18.594Z,1.25
2023-03-29T20:15:17.577Z,1.25
2023-03-29T20:16:17.611Z,1.26
2023-03-29T20:17:17.540Z,1.26
2023-03-29T20:18:17.549Z,1.29
2023-03-29T20:19:17.635Z,1.26
2023-03-29T20:20:17.544Z,1.24
2023-03-29T20:21:17.538Z,1.26
2023-03-29T20:22:17.564Z,1.26
2023-03-29T20:23:17.553Z,1.25
2023-03-29T20:24:17.561Z,1.26
2023-03-29T20:25:17.595Z,1.26
2023-03-29T20:26:17.691Z,1.26
2023-03-29T20:27:17.600Z,1.25
2023-03-29T20:28:17.616Z,1.25
2023-03-29T20:29:17.659Z,1.27
2023-03-29T20:30:17.677Z,1.26
2023-03-29T20:31:17.686Z,1.24
2023-03-29T20:32:17.668Z,1.24
2023-03-29T20:33:17.670Z,1.25
2023-03-29T20:34:17.658Z,1.24
2023-03-29T20:35:17.642Z,1.26
2023-03-29T20:36:17.866Z,1.24
2023-03-29T20:37:17.633Z,1.25
2023-03-29T20:38:17.660Z,1.23
2023-03-29T20:39:17.658Z,1.23
2023-03-29T20:40:17.625Z,1.25
2023-03-29T20:41:17.667Z,1.24
2023-03-29T20:42:17.685Z,1.27
2023-03-29T20:43:17.638Z,1.26
2023-03-29T20:44:17.625Z,1.24
2023-03-29T20:45:17.649Z,1.25
2023-03-29T20:46:17.703Z,1.24
2023-03-29T20:47:17.641Z,1.25
2023-03-29T20:48:17.634Z,1.23
2023-03-29T20:49:17.655Z,1.25
2023-03-29T20:50:17.633Z,1.25
2023-03-29T20:51:17.654Z,1.26
2023-03-29T20:52:17.652Z,1.26
2023-03-29T20:53:17.656Z,1.25
2023-03-29T20:54:17.620Z,1.26
2023-03-29T20:55:17.622Z,1.24
2023-03-29T20:56:17.599Z,1.25
2023-03-29T20:57:17.670Z,1.22
2023-03-29T20:58:17.588Z,1.23
2023-03-29T20:59:17.584Z,1.24
2023-03-29T21:00:17.614Z,1.26
2023-03-29T21:01:17.603Z,1.22
2023-03-29T21:02:17.660Z,1.22
2023-03-29T21:03:17.702Z,1.22
2023-03-29T21:04:17.603Z,1.24
2023-03-29T21:05:17.586Z,1.24
2023-03-29T21:06:17.582Z,1.24
2023-03-29T21:07:17.582Z,1.24
2023-03-29T21:08:17.610Z,1.24
2023-03-29T21:09:17.612Z,1.21
2023-03-29T21:10:17.606Z,1.22
2023-03-29T21:11:17.588Z,1.22
2023-03-29T21:12:17.698Z,1.23
2023-03-29T21:13:17.585Z,1.26
2023-03-29T21:14:17.604Z,1.23
2023-03-29T21:15:17.565Z,1.19
2023-03-29T21:16:17.648Z,1.25
2023-03-29T21:17:17.630Z,1.25
2023-03-29T21:18:17.575Z,1.25
2023-03-29T21:19:17.581Z,1.23
2023-03-29T21:20:17.587Z,1.25
2023-03-29T21:21:17.604Z,1.23
2023-03-29T21:22:17.600Z,1.25
2023-03-29T21:23:17.612Z,1.22
2023-03-29T21:24:17.610Z,1.25
2023-03-29T21:25:17.633Z,1.22
2023-03-29T21:26:17.559Z,1.25
2023-03-29T21:27:17.591Z,1.24
2023-03-29T21:28:17.587Z,1.24
2023-03-29T21:29:17.590Z,1.23
2023-03-29T21:30:17.555Z,1.23
2023-03-29T21:31:17.645Z,1.23
2023-03-29T21:32:17.572Z,1.23
2023-03-29T21:33:17.577Z,1.23
2023-03-29T21:34:17.578Z,1.24
2023-03-29T21:35:17.930Z,1.23
2023-03-29T21:36:17.666Z,1.21
2023-03-29T21:37:17.545Z,1.23
2023-03-29T21:38:17.564Z,1.22
2023-03-29T21:39:17.559Z,1.22
2023-03-29T21:40:17.570Z,1.24
2023-03-29T21:41:17.563Z,1.23
2023-03-29T21:42:17.579Z,1.24
2023-03-29T21:43:17.579Z,1.21
2023-03-29T21:44:17.590Z,1.24
2023-03-29T21:45:17.599Z,1.27
2023-03-29T21:46:17.650Z,1.24
2023-03-29T21:47:17.631Z,1.23
2023-03-29T21:48:17.642Z,1.22
2023-03-29T21:49:17.634Z,1.24
2023-03-29T21:50:17.633Z,1.24
2023-03-29T21:51:17.647Z,1.24
2023-03-29T21:52:17.665Z,1.23
2023-03-29T21:53:17.650Z,1.23
2023-03-29T21:54:17.655Z,1.21
2023-03-29T21:55:17.665Z,1.20
2023-03-29T21:56:17.680Z,1.22
2023-03-29T21:57:17.753Z,1.20
2023-03-29T21:58:17.686Z,1.24
2023-03-29T21:59:17.690Z,1.22
2023-03-29T22:00:24.472Z,1.22
2023-03-29T22:01:18.405Z,1.22
2023-03-29T22:02:17.734Z,1.22
2023-03-29T22:03:17.892Z,1.23
2023-03-29T22:04:29.181Z,1.24
2023-03-29T22:05:18.637Z,1.22
2023-03-29T22:06:17.681Z,1.23
2023-03-29T22:07:17.641Z,1.23
2023-03-29T22:08:17.671Z,1.23
2023-03-29T22:09:17.601Z,1.23
2023-03-29T22:10:17.617Z,1.23
2023-03-29T22:11:17.618Z,1.23
2023-03-29T22:12:17.629Z,1.22
2023-03-29T22:13:17.637Z,1.24
2023-03-29T22:14:17.587Z,1.23
2023-03-29T22:15:17.557Z,1.22
2023-03-29T22:16:17.652Z,1.22
2023-03-29T22:17:17.553Z,1.21
2023-03-29T22:18:17.572Z,1.22
2023-03-29T22:19:17.576Z,1.22
2023-03-29T22:20:17.560Z,1.23
2023-03-29T22:21:17.619Z,1.24
2023-03-29T22:22:17.597Z,1.24
2023-03-29T22:23:17.600Z,1.23
2023-03-29T22:24:17.604Z,1.20
2023-03-29T22:25:17.635Z,1.23
2023-03-29T22:26:17.628Z,1.23
2023-03-29T22:27:17.633Z,1.21
2023-03-29T22:28:17.676Z,1.24
2023-03-29T22:29:17.642Z,1.26
2023-03-29T22:30:17.710Z,1.21
2023-03-29T22:31:17.726Z,1.22
2023-03-29T22:32:17.937Z,1.23
2023-03-29T22:33:17.727Z,1.24
2023-03-29T22:34:17.713Z,1.21
2023-03-29T22:35:17.731Z,1.23
2023-03-29T22:36:17.825Z,1.19
2023-03-29T22:37:17.755Z,1.23
2023-03-29T22:38:17.765Z,1.23
2023-03-29T22:39:17.777Z,1.22
2023-03-29T22:40:17.825Z,1.22
2023-03-29T22:41:17.825Z,1.23
2023-03-29T22:42:17.791Z,1.22
2023-03-29T22:43:17.836Z,1.22
2023-03-29T22:44:17.844Z,1.20
2023-03-29T22:45:17.864Z,1.22
2023-03-29T22:46:17.919Z,1.22
2023-03-29T22:47:17.882Z,1.22
2023-03-29T22:48:17.870Z,1.22
2023-03-29T22:49:17.904Z,1.23
2023-03-29T22:50:17.946Z,1.23
2023-03-29T22:51:17.902Z,1.22
2023-03-29T22:52:17.949Z,1.22
2023-03-29T22:53:17.949Z,1.22
2023-03-29T22:54:17.960Z,1.22
2023-03-29T22:55:17.987Z,1.20
2023-03-29T22:56:18.037Z,1.24
2023-03-29T22:57:18.068Z,1.21
2023-03-29T22:58:18.037Z,1.21
2023-03-29T22:59:18.045Z,1.21
2023-03-29T23:00:18.054Z,1.21
2023-03-29T23:01:18.139Z,1.20
2023-03-29T23:02:18.065Z,1.23
2023-03-29T23:03:18.133Z,1.23
2023-03-29T23:04:18.187Z,1.22
2023-03-29T23:05:18.493Z,1.21
2023-03-29T23:06:18.143Z,1.22
2023-03-29T23:07:18.180Z,1.22
2023-03-29T23:08:18.187Z,1.20
2023-03-29T23:09:18.211Z,1.21
2023-03-29T23:10:18.230Z,1.23
2023-03-29T23:11:18.253Z,1.20
2023-03-29T23:12:18.231Z,1.21
2023-03-29T23:13:18.235Z,1.21
2023-03-29T23:14:18.299Z,1.22
2023-03-29T23:15:18.315Z,1.23
2023-03-29T23:16:18.375Z,1.23
2023-03-29T23:17:18.329Z,1.20
2023-03-29T23:18:18.348Z,1.20
2023-03-29T23:19:18.427Z,1.24
2023-03-29T23:20:18.392Z,1.21
2023-03-29T23:21:18.445Z,1.22
2023-03-29T23:22:18.418Z,1.19
2023-03-29T23:23:18.421Z,1.21
2023-03-29T23:24:19.304Z,1.21
2023-03-29T23:25:18.484Z,1.20
2023-03-29T23:26:18.536Z,1.19
2023-03-29T23:27:18.539Z,1.21
2023-03-29T23:28:18.519Z,1.24
2023-03-29T23:29:18.557Z,1.19
2023-03-29T23:30:18.552Z,1.22
2023-03-29T23:31:18.755Z,1.19
2023-03-29T23:32:18.610Z,1.20
2023-03-29T23:33:18.688Z,1.18
2023-03-29T23:34:18.691Z,1.23
2023-03-29T23:35:18.710Z,1.20
2023-03-29T23:36:18.770Z,1.19
2023-03-29T23:37:18.760Z,1.22
2023-03-29T23:38:18.837Z,1.20
2023-03-29T23:39:18.825Z,1.20
2023-03-29T23:40:18.826Z,1.22
2023-03-29T23:41:18.896Z,1.20
2023-03-29T23:42:18.876Z,1.17
2023-03-29T23:43:18.906Z,1.20
2023-03-29T23:44:18.922Z,1.21
2023-03-29T23:45:18.965Z,1.23
2023-03-29T23:46:19.078Z,1.22
2023-03-29T23:47:19.071Z,1.24
2023-03-29T23:48:18.999Z,1.20
2023-03-29T23:49:19.060Z,1.20
2023-03-29T23:50:19.051Z,1.20
2023-03-29T23:51:19.114Z,1.21
2023-03-29T23:52:19.125Z,1.21
2023-03-29T23:53:19.122Z,1.21
2023-03-29T23:54:19.138Z,1.20
2023-03-29T23:55:19.181Z,1.21
2023-03-29T23:56:19.193Z,1.22
2023-03-29T23:57:19.328Z,1.20
2023-03-29T23:58:19.266Z,1.20
2023-03-29T23:59:19.281Z,1.20
